createdAt,value
2022-12-24T00:02:26.916Z,27.60
2022-12-24T00:05:00.882Z,21.80
2022-12-24T00:07:33.154Z,26.15
2022-12-24T00:10:02.588Z,19.42
2022-12-24T00:12:32.243Z,18.58
2022-12-24T00:15:01.577Z,20.88
2022-12-24T00:17:31.575Z,17.55
2022-12-24T00:20:01.102Z,16.95
2022-12-24T00:22:32.317Z,18.50
2022-12-24T00:25:01.815Z,15.52
2022-12-24T00:27:31.509Z,17.20
2022-12-24T00:30:00.945Z,14.25
2022-12-24T00:32:31.086Z,13.90
2022-12-24T00:35:00.398Z,13.98
2022-12-24T00:37:31.664Z,15.10
2022-12-24T00:40:01.040Z,20.67
2022-12-24T00:42:30.675Z,17.30
2022-12-24T00:44:59.986Z,15.82
2022-12-24T00:47:29.980Z,23.92
2022-12-24T00:49:59.408Z,18.90
2022-12-24T00:52:29.635Z,20.97
2022-12-24T00:55:00.358Z,21.42
2022-12-24T00:57:30.749Z,17.88
2022-12-24T01:00:00.044Z,17.15
2022-12-24T01:02:29.960Z,18.73
2022-12-24T01:05:14.735Z,20.23
2022-12-24T01:07:45.786Z,19.08
2022-12-24T01:10:19.090Z,20.05
2022-12-24T01:12:49.290Z,15.63
2022-12-24T01:15:18.931Z,17.63
2022-12-24T01:17:49.064Z,22.33
2022-12-24T01:20:19.145Z,22.10
2022-12-24T01:22:49.848Z,16.13
2022-12-24T01:25:20.807Z,27.73
2022-12-24T01:27:50.561Z,20.70
2022-12-24T01:30:19.879Z,21.40
2022-12-24T01:32:49.678Z,24.05
2022-12-24T01:35:19.294Z,28.85
2022-12-24T01:37:49.061Z,24.00
2022-12-24T01:40:38.283Z,21.80
2022-12-24T01:43:28.821Z,23.90
2022-12-24T01:45:59.987Z,23.65
2022-12-24T01:48:36.952Z,23.17
2022-12-24T01:51:13.607Z,21.95
2022-12-24T01:53:45.229Z,24.80
2022-12-24T01:56:17.123Z,20.83
2022-12-24T01:58:50.969Z,25.25
2022-12-24T02:01:20.700Z,19.88
2022-12-24T02:03:50.875Z,21.37
2022-12-24T02:06:22.759Z,19.10
2022-12-24T02:08:52.418Z,19.45
2022-12-24T02:11:24.155Z,23.33
2022-12-24T02:13:56.918Z,23.75
2022-12-24T02:16:36.765Z,22.60
2022-12-24T02:19:19.270Z,25.30
2022-12-24T02:22:01.674Z,25.17
2022-12-24T02:25:10.628Z,26.63
2022-12-24T02:27:53.414Z,22.30
2022-12-24T02:30:26.037Z,24.92
2022-12-24T02:33:02.885Z,24.45
2022-12-24T02:35:43.894Z,28.05
2022-12-24T02:38:18.603Z,16.90
2022-12-24T02:40:52.389Z,19.75
2022-12-24T02:43:25.915Z,19.77
2022-12-24T02:46:01.596Z,18.33
2022-12-24T02:48:33.518Z,17.95
2022-12-24T02:51:08.418Z,21.50
2022-12-24T02:53:38.976Z,17.65
2022-12-24T02:56:28.462Z,21.00
2022-12-24T02:59:24.338Z,19.98
2022-12-24T03:02:01.211Z,21.35
2022-12-24T03:04:49.231Z,18.05
2022-12-24T03:07:23.845Z,19.17
2022-12-24T03:10:00.077Z,21.42
2022-12-24T03:12:35.023Z,20.50
2022-12-24T03:15:06.222Z,17.15
2022-12-24T03:17:41.179Z,21.77
2022-12-24T03:20:12.841Z,17.70
2022-12-24T03:22:43.195Z,17.00
2022-12-24T03:25:12.569Z,20.15
2022-12-24T03:27:43.203Z,14.23
2022-12-24T03:30:18.460Z,14.02
2022-12-24T03:32:49.791Z,13.63
2022-12-24T03:35:19.176Z,11.73
2022-12-24T03:37:48.964Z,16.23
2022-12-24T03:40:19.096Z,14.25
2022-12-24T03:42:48.852Z,14.30
2022-12-24T03:45:18.479Z,14.88
2022-12-24T03:47:50.254Z,17.35
2022-12-24T03:52:48.931Z,16.92
2022-12-24T03:55:18.634Z,21.77
2022-12-24T03:57:48.251Z,13.15
2022-12-24T04:00:18.406Z,15.13
2022-12-24T04:02:49.857Z,13.73
2022-12-24T04:05:21.774Z,13.65
2022-12-24T04:07:51.569Z,14.23
2022-12-24T04:10:20.961Z,11.07
2022-12-24T04:12:50.611Z,11.27
2022-12-24T04:15:20.533Z,12.57
2022-12-24T04:17:51.621Z,13.13
2022-12-24T04:20:21.037Z,12.82
2022-12-24T04:22:50.842Z,15.77
2022-12-24T04:25:20.072Z,15.18
2022-12-24T04:27:49.814Z,16.20
2022-12-24T04:30:19.250Z,14.15
2022-12-24T04:32:49.001Z,15.32
2022-12-24T04:35:20.097Z,19.60
2022-12-24T04:37:49.755Z,21.35
2022-12-24T04:40:19.208Z,20.63
2022-12-24T04:42:49.799Z,20.75
2022-12-24T04:45:19.238Z,14.70
2022-12-24T04:47:48.868Z,16.20
2022-12-24T04:50:19.795Z,15.85
2022-12-24T04:52:49.536Z,27.95
2022-12-24T04:55:19.042Z,14.57
2022-12-24T04:57:52.866Z,13.55
2022-12-24T05:00:23.198Z,15.60
2022-12-24T05:02:53.352Z,12.18
2022-12-24T05:05:24.315Z,13.77
2022-12-24T05:07:54.309Z,12.65
2022-12-24T05:10:23.684Z,18.02
2022-12-24T05:12:53.743Z,28.27
2022-12-24T05:15:23.382Z,22.67
2022-12-24T05:17:53.407Z,18.05
2022-12-24T05:20:24.276Z,40.67
2022-12-24T05:23:11.091Z,63.30
2022-12-24T05:25:58.489Z,70.93
2022-12-24T05:28:28.439Z,36.42
2022-12-24T05:30:57.870Z,31.05
2022-12-24T05:33:27.564Z,42.00
2022-12-24T05:35:58.393Z,46.83
2022-12-24T05:38:28.011Z,80.95
2022-12-24T05:40:57.512Z,79.05
2022-12-24T05:43:28.043Z,73.53
2022-12-24T05:46:00.994Z,53.73
2022-12-24T05:48:31.186Z,48.15
2022-12-24T05:51:01.980Z,27.50
2022-12-24T05:56:06.089Z,19.67
2022-12-24T05:58:37.319Z,18.67
2022-12-24T06:01:07.423Z,15.65
2022-12-24T06:03:38.504Z,17.55
2022-12-24T06:06:11.468Z,18.23
2022-12-24T06:08:43.005Z,15.02
2022-12-24T06:11:14.875Z,15.65
2022-12-24T06:13:45.331Z,17.45
2022-12-24T06:16:16.399Z,18.02
2022-12-24T06:18:46.572Z,18.05
2022-12-24T06:21:18.069Z,20.45
2022-12-24T06:23:48.776Z,14.30
2022-12-24T06:26:20.500Z,17.90
2022-12-24T06:28:52.393Z,17.88
2022-12-24T06:31:23.907Z,12.57
2022-12-24T06:33:54.210Z,17.17
2022-12-24T06:36:26.637Z,14.05
2022-12-24T06:38:56.943Z,12.65
2022-12-24T06:41:26.577Z,14.32
2022-12-24T06:43:56.235Z,12.55
2022-12-24T06:46:25.603Z,14.43
2022-12-24T06:48:56.072Z,12.70
2022-12-24T06:51:26.837Z,14.95
2022-12-24T06:53:57.034Z,18.48
2022-12-24T06:56:26.508Z,14.70
2022-12-24T06:59:00.184Z,16.55
2022-12-24T07:01:34.505Z,17.33
2022-12-24T07:04:04.579Z,20.80
2022-12-24T07:06:35.353Z,16.42
2022-12-24T07:09:05.627Z,16.15
2022-12-24T07:11:34.899Z,14.25
2022-12-24T07:14:04.524Z,16.23
2022-12-24T07:16:34.063Z,15.73
2022-12-24T07:19:03.808Z,18.27
2022-12-24T07:21:34.582Z,19.20
2022-12-24T07:24:04.412Z,18.92
2022-12-24T07:26:33.775Z,14.30
2022-12-24T07:29:03.864Z,16.77
2022-12-24T07:31:33.292Z,16.55
2022-12-24T07:34:02.907Z,15.70
2022-12-24T07:36:32.235Z,19.10
2022-12-24T07:39:03.663Z,17.05
2022-12-24T07:41:37.926Z,20.08
2022-12-24T07:44:13.187Z,18.42
2022-12-24T07:46:43.520Z,17.80
2022-12-24T07:49:13.788Z,25.65
2022-12-24T07:51:43.177Z,19.98
2022-12-24T07:54:14.860Z,30.98
2022-12-24T07:56:44.631Z,27.00
2022-12-24T07:59:15.338Z,25.10
2022-12-24T08:01:45.950Z,25.83
2022-12-24T08:04:16.333Z,25.30
2022-12-24T08:06:46.122Z,24.60
2022-12-24T08:09:17.420Z,24.10
2022-12-24T08:11:51.923Z,19.65
2022-12-24T08:14:22.645Z,18.80
2022-12-24T08:16:52.136Z,22.08
2022-12-24T08:19:21.815Z,22.27
2022-12-24T08:21:51.328Z,22.35
2022-12-24T08:24:22.507Z,17.58
2022-12-24T08:26:51.851Z,20.35
2022-12-24T08:29:21.499Z,20.58
2022-12-24T08:31:50.813Z,19.13
2022-12-24T08:34:20.483Z,16.77
2022-12-24T08:36:50.057Z,16.65
2022-12-24T08:39:19.696Z,16.67
2022-12-24T08:41:50.447Z,16.25
2022-12-24T08:44:20.208Z,18.55
2022-12-24T08:46:49.538Z,13.90
2022-12-24T08:49:19.207Z,16.67
2022-12-24T08:51:49.313Z,20.67
2022-12-24T08:54:19.986Z,16.20
2022-12-24T08:56:50.730Z,18.55
2022-12-24T08:59:20.752Z,16.75
2022-12-24T09:01:50.385Z,16.65
2022-12-24T09:04:20.549Z,19.57
2022-12-24T09:06:50.063Z,18.30
2022-12-24T09:09:19.763Z,17.92
2022-12-24T09:11:50.524Z,20.52
2022-12-24T09:14:20.331Z,19.00
2022-12-24T09:16:49.729Z,16.15
2022-12-24T09:19:19.712Z,16.25
2022-12-24T09:21:49.197Z,13.45
2022-12-24T09:24:18.857Z,15.30
2022-12-24T09:26:55.572Z,14.95
2022-12-24T09:29:27.477Z,15.52
2022-12-24T09:31:58.162Z,12.50
2022-12-24T09:34:30.521Z,12.95
2022-12-24T09:37:02.714Z,10.50
2022-12-24T09:39:32.455Z,17.75
2022-12-24T09:42:14.525Z,12.30
2022-12-24T09:44:48.909Z,14.68
2022-12-24T09:47:28.307Z,6.43
2022-12-24T09:50:01.291Z,7.53
2022-12-24T09:52:34.816Z,6.10
2022-12-24T09:55:16.170Z,5.53
2022-12-24T09:57:49.551Z,6.40
2022-12-24T10:00:23.417Z,5.15
2022-12-24T10:02:53.197Z,7.55
2022-12-24T10:05:36.716Z,9.57
2022-12-24T10:08:14.753Z,4.68
2022-12-24T10:10:52.405Z,13.90
2022-12-24T10:13:36.329Z,5.50
2022-12-24T10:16:14.054Z,7.90
2022-12-24T10:18:58.154Z,4.28
2022-12-24T10:21:38.996Z,3.20
2022-12-24T10:24:14.399Z,4.90
2022-12-24T10:26:47.175Z,2.42
2022-12-24T10:29:22.446Z,3.30
2022-12-24T10:31:57.191Z,2.05
2022-12-24T10:34:30.163Z,2.25
2022-12-24T10:37:00.802Z,2.83
2022-12-24T10:39:30.188Z,3.55
2022-12-24T10:42:02.240Z,3.28
2022-12-24T10:44:34.699Z,2.88
2022-12-24T10:47:06.542Z,1.40
2022-12-24T10:49:41.918Z,6.25
2022-12-24T10:52:14.450Z,3.20
2022-12-24T10:55:09.628Z,3.05
2022-12-24T10:57:40.374Z,3.58
2022-12-24T11:00:22.046Z,4.80
2022-12-24T11:03:07.518Z,4.90
2022-12-24T11:05:38.188Z,1.73
2022-12-24T11:10:41.551Z,1.75
2022-12-24T11:13:39.976Z,2.88
2022-12-24T11:16:19.167Z,2.20
2022-12-24T11:18:52.553Z,3.03
2022-12-24T11:21:28.258Z,1.95
2022-12-24T11:24:00.111Z,2.00
2022-12-24T11:26:32.411Z,2.13
2022-12-24T11:29:15.511Z,3.30
2022-12-24T11:31:47.105Z,2.80
2022-12-24T11:34:25.029Z,2.03
2022-12-24T11:36:56.531Z,2.22
2022-12-24T11:39:27.662Z,2.55
2022-12-24T11:41:56.959Z,1.33
2022-12-24T11:44:29.060Z,1.08
2022-12-24T11:46:59.856Z,2.50
2022-12-24T11:49:31.765Z,1.98
2022-12-24T11:52:15.555Z,2.50
2022-12-24T11:54:53.080Z,1.50
2022-12-24T11:57:25.440Z,2.40
2022-12-24T11:59:55.518Z,3.08
2022-12-24T12:02:30.807Z,1.73
2022-12-24T12:05:05.196Z,3.00
2022-12-24T12:07:37.363Z,4.07
2022-12-24T12:10:12.358Z,2.03
2022-12-24T12:12:44.902Z,3.75
2022-12-24T12:15:16.681Z,1.73
2022-12-24T12:17:51.893Z,1.10
2022-12-24T12:20:25.814Z,2.35
2022-12-24T12:23:01.143Z,2.42
2022-12-24T12:25:39.184Z,1.25
2022-12-24T12:28:17.027Z,2.05
2022-12-24T12:30:47.757Z,4.70
2022-12-24T12:33:25.783Z,2.47
2022-12-24T12:35:57.370Z,3.22
2022-12-24T12:38:30.970Z,2.28
2022-12-24T12:41:14.167Z,3.45
2022-12-24T12:44:04.077Z,3.67
2022-12-24T12:46:43.114Z,3.55
2022-12-24T12:49:27.036Z,7.85
2022-12-24T12:52:05.522Z,3.53
2022-12-24T12:54:46.546Z,3.42
2022-12-24T12:57:21.499Z,6.50
2022-12-24T12:59:56.614Z,7.43
2022-12-24T13:02:53.124Z,2.20
2022-12-24T13:05:52.899Z,5.78
2022-12-24T13:08:56.484Z,4.78
2022-12-24T13:11:44.433Z,4.70
2022-12-24T13:14:52.900Z,5.03
2022-12-24T13:17:48.813Z,5.72
2022-12-24T13:20:25.445Z,4.35
2022-12-24T13:23:00.351Z,5.13
2022-12-24T13:25:36.199Z,6.57
2022-12-24T13:28:34.655Z,7.47
2022-12-24T13:31:28.339Z,7.63
2022-12-24T13:34:27.945Z,4.90
2022-12-24T13:37:21.074Z,6.15
2022-12-24T13:40:18.297Z,5.53
2022-12-24T13:42:53.505Z,6.70
2022-12-24T13:45:45.658Z,4.85
2022-12-24T13:48:34.153Z,6.00
2022-12-24T13:51:20.752Z,7.90
2022-12-24T13:53:51.462Z,7.43
2022-12-24T13:56:34.136Z,9.65
2022-12-24T13:59:20.388Z,11.13
2022-12-24T14:01:50.239Z,14.13
2022-12-24T14:04:27.482Z,15.43
2022-12-24T14:06:59.495Z,21.40
2022-12-24T14:09:31.246Z,24.67
2022-12-24T14:12:48.215Z,25.48
2022-12-24T14:16:05.304Z,33.50
2022-12-24T14:18:40.964Z,34.22
2022-12-24T14:21:18.991Z,40.30
2022-12-24T14:23:55.506Z,47.30
2022-12-24T14:26:26.951Z,128.77
2022-12-24T14:28:59.986Z,109.65
2022-12-24T14:31:29.814Z,46.30
2022-12-24T14:34:09.195Z,40.72
2022-12-24T14:36:39.448Z,69.40
2022-12-24T14:39:13.123Z,69.80
2022-12-24T14:41:52.136Z,98.72
2022-12-24T14:44:35.661Z,52.03
2022-12-24T14:47:18.939Z,101.18
2022-12-24T14:50:05.233Z,50.45
2022-12-24T14:53:04.714Z,110.03
2022-12-24T14:55:38.371Z,124.22
2022-12-24T14:58:27.553Z,103.35
2022-12-24T15:01:00.628Z,57.63
2022-12-24T15:03:32.590Z,86.68
2022-12-24T15:06:05.313Z,138.75
2022-12-24T15:08:39.106Z,63.00
2022-12-24T15:11:10.659Z,148.70
2022-12-24T15:13:43.089Z,47.45
2022-12-24T15:16:20.254Z,64.93
2022-12-24T15:18:53.643Z,74.47
2022-12-24T15:21:29.839Z,94.18
2022-12-24T15:23:59.792Z,75.38
2022-12-24T15:26:31.112Z,62.88
2022-12-24T15:29:04.044Z,54.88
2022-12-24T15:31:35.195Z,69.53
2022-12-24T15:34:04.936Z,69.93
2022-12-24T15:36:37.361Z,58.17
2022-12-24T15:39:09.946Z,75.43
2022-12-24T15:42:01.920Z,45.60
2022-12-24T15:44:37.202Z,64.55
2022-12-24T15:47:10.829Z,54.03
2022-12-24T15:49:41.414Z,57.17
2022-12-24T15:52:14.243Z,62.30
2022-12-24T15:54:50.782Z,52.05
2022-12-24T15:57:28.162Z,46.05
2022-12-24T15:59:59.961Z,45.80
2022-12-24T16:02:45.591Z,53.47
2022-12-24T16:05:34.112Z,50.42
2022-12-24T16:08:25.633Z,77.35
2022-12-24T16:11:09.744Z,58.30
2022-12-24T16:13:42.893Z,59.97
2022-12-24T16:16:15.816Z,75.63
2022-12-24T16:18:55.065Z,74.05
2022-12-24T16:21:27.478Z,49.72
2022-12-24T16:23:59.082Z,97.22
2022-12-24T16:26:28.730Z,101.22
2022-12-24T16:28:58.102Z,99.28
2022-12-24T16:31:34.310Z,156.73
2022-12-24T16:34:06.275Z,151.65
2022-12-24T16:36:36.171Z,168.13
2022-12-24T16:39:22.576Z,50.85
2022-12-24T16:42:09.708Z,45.25
2022-12-24T16:44:39.235Z,58.83
2022-12-24T16:47:13.936Z,42.50
2022-12-24T16:49:44.883Z,56.35
2022-12-24T16:52:19.537Z,35.97
2022-12-24T16:54:48.870Z,56.65
2022-12-24T16:57:20.420Z,40.28
2022-12-24T16:59:49.849Z,54.47
2022-12-24T17:02:22.775Z,62.03
2022-12-24T17:04:53.981Z,143.05
2022-12-24T17:07:23.742Z,180.88
2022-12-24T17:09:53.180Z,127.00
2022-12-24T17:12:23.261Z,73.47
2022-12-24T17:14:52.636Z,37.83
2022-12-24T17:17:25.026Z,79.10
2022-12-24T17:19:56.552Z,76.80
2022-12-24T17:22:27.584Z,80.53
2022-12-24T17:24:57.727Z,49.40
2022-12-24T17:27:27.763Z,101.32
2022-12-24T17:29:57.653Z,123.75
2022-12-24T17:32:28.188Z,71.95
2022-12-24T17:35:00.324Z,86.00
2022-12-24T17:37:30.387Z,94.25
2022-12-24T17:39:59.788Z,67.85
2022-12-24T17:42:29.671Z,49.67
2022-12-24T17:44:59.118Z,114.88
2022-12-24T17:47:29.255Z,48.90
2022-12-24T17:50:00.409Z,60.90
2022-12-24T17:52:30.234Z,54.90
2022-12-24T17:54:59.535Z,43.97
2022-12-24T17:57:29.899Z,67.93
2022-12-24T17:59:59.238Z,63.10
2022-12-24T18:02:29.393Z,51.92
2022-12-24T18:05:00.483Z,69.63
2022-12-24T18:07:30.498Z,76.97
2022-12-24T18:10:00.240Z,68.45
2022-12-24T18:12:30.025Z,97.83
2022-12-24T18:15:00.125Z,82.25
2022-12-24T18:17:30.341Z,61.17
2022-12-24T18:20:01.128Z,87.82
2022-12-24T18:22:30.775Z,77.10
2022-12-24T18:25:00.198Z,84.75
2022-12-24T18:27:30.201Z,58.58
2022-12-24T18:29:59.688Z,78.30
2022-12-24T18:32:29.638Z,47.20
2022-12-24T18:35:00.593Z,74.63
2022-12-24T18:37:30.441Z,90.15
2022-12-24T18:39:59.700Z,74.75
2022-12-24T18:42:29.543Z,92.38
2022-12-24T18:44:58.925Z,105.65
2022-12-24T18:47:28.594Z,154.82
2022-12-24T18:49:57.923Z,127.30
2022-12-24T18:52:32.447Z,132.68
2022-12-24T18:55:01.940Z,102.20
2022-12-24T18:57:32.188Z,164.38
2022-12-24T19:00:01.453Z,177.52
2022-12-24T19:02:31.537Z,89.82
2022-12-24T19:05:00.983Z,133.38
2022-12-24T19:07:32.123Z,98.30
2022-12-24T19:10:01.601Z,86.88
2022-12-24T19:12:31.251Z,193.18
2022-12-24T19:15:01.714Z,102.60
2022-12-24T19:17:31.472Z,96.03
2022-12-24T19:20:00.895Z,104.13
2022-12-24T19:22:32.009Z,116.85
2022-12-24T19:25:01.611Z,65.93
2022-12-24T19:27:31.349Z,76.53
2022-12-24T19:30:00.629Z,73.50
2022-12-24T19:32:30.290Z,95.97
2022-12-24T19:34:59.671Z,105.45
2022-12-24T19:37:31.306Z,152.07
2022-12-24T19:40:00.740Z,90.03
2022-12-24T19:42:31.516Z,110.22
2022-12-24T19:45:00.820Z,104.95
2022-12-24T19:47:30.466Z,84.70
2022-12-24T19:50:00.345Z,162.90
2022-12-24T19:52:31.901Z,120.22
2022-12-24T19:55:01.316Z,108.13
2022-12-24T19:57:31.333Z,90.38
2022-12-24T20:00:00.637Z,168.57
2022-12-24T20:02:30.892Z,146.90
2022-12-24T20:05:00.325Z,187.73
2022-12-24T20:07:31.764Z,114.70
2022-12-24T20:10:01.339Z,139.50
2022-12-24T20:12:32.016Z,165.10
2022-12-24T20:15:02.096Z,121.45
2022-12-24T20:17:31.727Z,178.45
2022-12-24T20:20:01.142Z,154.25
2022-12-24T20:22:32.516Z,121.38
2022-12-24T20:27:31.063Z,154.63
2022-12-24T20:30:00.923Z,179.68
2022-12-24T20:32:31.106Z,154.23
2022-12-24T20:35:00.504Z,104.38
2022-12-24T20:37:31.735Z,121.18
2022-12-24T20:40:01.064Z,84.65
2022-12-24T20:42:30.748Z,69.75
2022-12-24T20:45:00.975Z,75.72
2022-12-24T20:47:30.744Z,83.35
2022-12-24T20:50:00.017Z,91.07
2022-12-24T20:52:29.707Z,90.40
2022-12-24T20:55:00.476Z,88.57
2022-12-24T20:57:35.875Z,83.03
2022-12-24T21:00:06.896Z,80.90
2022-12-24T21:02:36.754Z,76.35
2022-12-24T21:05:08.375Z,73.30
2022-12-24T21:07:40.232Z,84.05
2022-12-24T21:12:59.065Z,49.28
2022-12-24T21:15:30.299Z,54.75
2022-12-24T21:18:00.759Z,61.30
2022-12-24T21:20:31.682Z,56.10
2022-12-24T21:23:02.564Z,59.35
2022-12-24T21:25:33.431Z,67.93
2022-12-24T21:28:03.867Z,51.00
2022-12-24T21:30:33.710Z,78.05
2022-12-24T21:33:03.970Z,61.45
2022-12-24T21:35:33.232Z,49.78
2022-12-24T21:38:03.191Z,53.38
2022-12-24T21:40:34.004Z,38.83
2022-12-24T21:43:03.814Z,37.30
2022-12-24T21:45:33.119Z,35.53
2022-12-24T21:48:24.155Z,35.53
2022-12-24T21:50:55.666Z,34.88
2022-12-24T21:53:42.449Z,41.05
2022-12-24T21:56:14.000Z,37.60
2022-12-24T21:58:42.729Z,41.47
2022-12-24T22:01:13.418Z,37.28
2022-12-24T22:03:43.392Z,62.47
2022-12-24T22:06:34.846Z,80.50
2022-12-24T22:09:21.974Z,78.22
2022-12-24T22:11:54.841Z,69.22
2022-12-24T22:14:25.160Z,84.32
2022-12-24T22:16:54.705Z,90.45
2022-12-24T22:19:24.774Z,149.30
2022-12-24T22:21:54.068Z,90.45
2022-12-24T22:24:23.828Z,198.43
2022-12-24T22:26:55.154Z,126.28
2022-12-24T22:29:25.168Z,131.95
2022-12-24T22:31:54.714Z,186.45
2022-12-24T22:34:24.402Z,96.25
2022-12-24T22:36:53.729Z,116.20
2022-12-24T22:39:23.846Z,60.85
2022-12-24T22:41:55.300Z,84.05
2022-12-24T22:44:25.308Z,115.32
2022-12-24T22:46:54.637Z,79.10
2022-12-24T22:49:24.793Z,157.60
2022-12-24T22:51:54.191Z,89.90
2022-12-24T22:54:24.202Z,115.57
2022-12-24T22:56:55.196Z,130.45
2022-12-24T22:59:24.885Z,129.88
2022-12-24T23:01:54.415Z,153.00
2022-12-24T23:04:24.303Z,97.13
2022-12-24T23:06:53.735Z,130.18
2022-12-24T23:09:23.545Z,109.03
2022-12-24T23:11:54.360Z,100.72
2022-12-24T23:14:53.215Z,128.80
2022-12-24T23:17:22.597Z,93.35
2022-12-24T23:19:52.264Z,158.70
2022-12-24T23:22:21.528Z,198.90
2022-12-24T23:24:51.324Z,93.65
2022-12-24T23:27:22.074Z,138.88
2022-12-24T23:32:20.657Z,115.00
2022-12-24T23:34:50.712Z,75.40
2022-12-24T23:37:19.979Z,68.57
2022-12-24T23:39:49.735Z,98.97
2022-12-24T23:42:19.124Z,109.88
2022-12-24T23:44:51.632Z,78.50
2022-12-24T23:47:21.105Z,83.88
2022-12-24T23:49:50.753Z,59.60
2022-12-24T23:52:20.107Z,93.95
2022-12-24T23:54:49.779Z,58.83
2022-12-24T23:57:19.072Z,86.20
2022-12-24T23:59:50.351Z,76.28
